sensor_id;sensor_type;location;lat;lon;timestamp;temperature;humidity
70336;SHT31;57756;47.408;18.940;2024-02-04T00:00:26;8.71;90.34
70336;SHT31;57756;47.408;18.940;2024-02-04T00:02:51;8.67;90.49
70336;SHT31;57756;47.408;18.940;2024-02-04T00:05:17;8.74;90.21
70336;SHT31;57756;47.408;18.940;2024-02-04T00:07:43;8.74;90.25
70336;SHT31;57756;47.408;18.940;2024-02-04T00:10:09;8.70;90.57
70336;SHT31;57756;47.408;18.940;2024-02-04T00:12:34;8.67;90.77
70336;SHT31;57756;47.408;18.940;2024-02-04T00:15:00;8.77;90.40
70336;SHT31;57756;47.408;18.940;2024-02-04T00:17:25;8.76;90.35
70336;SHT31;57756;47.408;18.940;2024-02-04T00:19:56;8.76;90.32
70336;SHT31;57756;47.408;18.940;2024-02-04T00:22:21;8.77;90.32
70336;SHT31;57756;47.408;18.940;2024-02-04T00:24:46;8.77;90.57
70336;SHT31;57756;47.408;18.940;2024-02-04T00:27:12;8.76;90.60
70336;SHT31;57756;47.408;18.940;2024-02-04T00:29:37;8.77;90.57
70336;SHT31;57756;47.408;18.940;2024-02-04T00:32:03;8.74;90.43
70336;SHT31;57756;47.408;18.940;2024-02-04T00:34:29;8.69;90.73
70336;SHT31;57756;47.408;18.940;2024-02-04T00:36:54;8.66;90.99
70336;SHT31;57756;47.408;18.940;2024-02-04T00:39:19;8.73;90.69
70336;SHT31;57756;47.408;18.940;2024-02-04T00:41:45;8.73;90.63
70336;SHT31;57756;47.408;18.940;2024-02-04T00:44:10;8.81;90.28
70336;SHT31;57756;47.408;18.940;2024-02-04T00:46:35;8.77;90.59
70336;SHT31;57756;47.408;18.940;2024-02-04T00:49:01;8.81;90.58
70336;SHT31;57756;47.408;18.940;2024-02-04T00:51:26;8.80;90.62
70336;SHT31;57756;47.408;18.940;2024-02-04T00:53:51;8.81;90.56
70336;SHT31;57756;47.408;18.940;2024-02-04T00:56:18;8.78;90.39
70336;SHT31;57756;47.408;18.940;2024-02-04T00:58:43;8.74;90.71
70336;SHT31;57756;47.408;18.940;2024-02-04T01:01:09;8.80;90.60
70336;SHT31;57756;47.408;18.940;2024-02-04T01:03:34;8.78;90.66
70336;SHT31;57756;47.408;18.940;2024-02-04T01:05:59;8.83;90.71
70336;SHT31;57756;47.408;18.940;2024-02-04T01:08:25;8.85;90.33
70336;SHT31;57756;47.408;18.940;2024-02-04T01:10:50;8.85;90.29
70336;SHT31;57756;47.408;18.940;2024-02-04T01:13:19;8.87;90.25
70336;SHT31;57756;47.408;18.940;2024-02-04T01:15:44;8.83;90.72
70336;SHT31;57756;47.408;18.940;2024-02-04T01:18:09;8.84;90.62
70336;SHT31;57756;47.408;18.940;2024-02-04T01:20:35;8.80;90.69
70336;SHT31;57756;47.408;18.940;2024-02-04T01:23:00;8.78;90.94
70336;SHT31;57756;47.408;18.940;2024-02-04T01:25:26;8.73;90.98
70336;SHT31;57756;47.408;18.940;2024-02-04T01:27:51;8.67;91.30
70336;SHT31;57756;47.408;18.940;2024-02-04T01:30:16;8.63;91.61
70336;SHT31;57756;47.408;18.940;2024-02-04T01:32:42;8.56;91.66
70336;SHT31;57756;47.408;18.940;2024-02-04T01:35:08;8.46;91.92
70336;SHT31;57756;47.408;18.940;2024-02-04T01:37:33;8.38;92.60
70336;SHT31;57756;47.408;18.940;2024-02-04T01:39:58;8.35;92.40
70336;SHT31;57756;47.408;18.940;2024-02-04T01:42:24;8.32;92.69
70336;SHT31;57756;47.408;18.940;2024-02-04T01:44:49;8.26;92.91
70336;SHT31;57756;47.408;18.940;2024-02-04T01:47:15;8.29;92.96
70336;SHT31;57756;47.408;18.940;2024-02-04T01:49:40;8.22;93.28
70336;SHT31;57756;47.408;18.940;2024-02-04T01:52:06;8.22;93.25
70336;SHT31;57756;47.408;18.940;2024-02-04T01:54:33;8.18;93.23
70336;SHT31;57756;47.408;18.940;2024-02-04T01:56:59;8.06;93.62
70336;SHT31;57756;47.408;18.940;2024-02-04T01:59:27;8.05;93.90
70336;SHT31;57756;47.408;18.940;2024-02-04T02:01:57;8.05;93.84
70336;SHT31;57756;47.408;18.940;2024-02-04T02:04:23;8.04;94.09
70336;SHT31;57756;47.408;18.940;2024-02-04T02:06:50;8.12;94.12
70336;SHT31;57756;47.408;18.940;2024-02-04T02:09:15;8.24;93.99
70336;SHT31;57756;47.408;18.940;2024-02-04T02:11:43;8.16;93.99
70336;SHT31;57756;47.408;18.940;2024-02-04T02:14:26;8.08;94.29
70336;SHT31;57756;47.408;18.940;2024-02-04T02:16:54;8.05;94.73
70336;SHT31;57756;47.408;18.940;2024-02-04T02:22:28;8.09;94.52
70336;SHT31;57756;47.408;18.940;2024-02-04T02:24:56;8.01;94.89
70336;SHT31;57756;47.408;18.940;2024-02-04T02:27:22;7.99;95.42
70336;SHT31;57756;47.408;18.940;2024-02-04T02:29:48;8.01;95.55
70336;SHT31;57756;47.408;18.940;2024-02-04T02:32:13;7.98;95.70
70336;SHT31;57756;47.408;18.940;2024-02-04T02:34:39;7.90;95.56
70336;SHT31;57756;47.408;18.940;2024-02-04T02:40:09;7.88;96.08
70336;SHT31;57756;47.408;18.940;2024-02-04T02:42:38;7.90;96.14
70336;SHT31;57756;47.408;18.940;2024-02-04T02:45:04;7.91;96.06
70336;SHT31;57756;47.408;18.940;2024-02-04T02:47:30;7.91;96.15
70336;SHT31;57756;47.408;18.940;2024-02-04T02:49:57;8.04;96.23
70336;SHT31;57756;47.408;18.940;2024-02-04T02:52:22;7.98;96.03
70336;SHT31;57756;47.408;18.940;2024-02-04T02:54:47;7.99;96.07
70336;SHT31;57756;47.408;18.940;2024-02-04T02:57:13;7.95;96.22
70336;SHT31;57756;47.408;18.940;2024-02-04T02:59:38;7.87;96.61
70336;SHT31;57756;47.408;18.940;2024-02-04T03:02:04;7.78;96.64
70336;SHT31;57756;47.408;18.940;2024-02-04T03:04:29;7.78;96.79
70336;SHT31;57756;47.408;18.940;2024-02-04T03:06:55;7.87;97.02
70336;SHT31;57756;47.408;18.940;2024-02-04T03:09:20;7.80;96.88
70336;SHT31;57756;47.408;18.940;2024-02-04T03:11:46;7.74;97.31
70336;SHT31;57756;47.408;18.940;2024-02-04T03:14:13;7.67;97.16
70336;SHT31;57756;47.408;18.940;2024-02-04T03:16:39;7.63;97.33
70336;SHT31;57756;47.408;18.940;2024-02-04T03:19:07;7.63;97.39
70336;SHT31;57756;47.408;18.940;2024-02-04T03:21:32;7.59;97.62
70336;SHT31;57756;47.408;18.940;2024-02-04T03:23:58;7.57;97.59
70336;SHT31;57756;47.408;18.940;2024-02-04T03:26:23;7.64;97.66
70336;SHT31;57756;47.408;18.940;2024-02-04T03:28:48;7.67;97.89
70336;SHT31;57756;47.408;18.940;2024-02-04T03:31:21;7.67;97.66
70336;SHT31;57756;47.408;18.940;2024-02-04T03:33:47;7.71;97.71
70336;SHT31;57756;47.408;18.940;2024-02-04T03:36:12;7.90;97.14
70336;SHT31;57756;47.408;18.940;2024-02-04T03:38:39;7.88;97.00
70336;SHT31;57756;47.408;18.940;2024-02-04T03:41:05;7.81;96.97
70336;SHT31;57756;47.408;18.940;2024-02-04T03:43:30;7.71;97.05
70336;SHT31;57756;47.408;18.940;2024-02-04T03:45:55;7.60;97.46
70336;SHT31;57756;47.408;18.940;2024-02-04T03:48:21;7.49;97.59
70336;SHT31;57756;47.408;18.940;2024-02-04T03:50:46;7.50;97.81
70336;SHT31;57756;47.408;18.940;2024-02-04T03:53:11;7.53;98.10
70336;SHT31;57756;47.408;18.940;2024-02-04T03:55:37;7.59;98.09
70336;SHT31;57756;47.408;18.940;2024-02-04T03:58:02;7.57;98.14
70336;SHT31;57756;47.408;18.940;2024-02-04T04:00:28;7.62;98.16
70336;SHT31;57756;47.408;18.940;2024-02-04T04:02:53;7.63;98.13
70336;SHT31;57756;47.408;18.940;2024-02-04T04:05:18;7.62;98.15
70336;SHT31;57756;47.408;18.940;2024-02-04T04:07:44;7.59;98.22
70336;SHT31;57756;47.408;18.940;2024-02-04T04:10:09;7.62;98.24
70336;SHT31;57756;47.408;18.940;2024-02-04T04:12:35;7.63;98.14
70336;SHT31;57756;47.408;18.940;2024-02-04T04:15:00;7.73;97.91
70336;SHT31;57756;47.408;18.940;2024-02-04T04:17:25;7.83;97.47
70336;SHT31;57756;47.408;18.940;2024-02-04T04:19:51;7.84;97.39
70336;SHT31;57756;47.408;18.940;2024-02-04T04:22:17;7.85;97.26
70336;SHT31;57756;47.408;18.940;2024-02-04T04:24:42;7.88;97.16
70336;SHT31;57756;47.408;18.940;2024-02-04T04:27:09;7.90;97.18
70336;SHT31;57756;47.408;18.940;2024-02-04T04:29:34;7.81;97.38
70336;SHT31;57756;47.408;18.940;2024-02-04T04:31:59;7.88;97.26
70336;SHT31;57756;47.408;18.940;2024-02-04T04:34:25;7.85;97.14
70336;SHT31;57756;47.408;18.940;2024-02-04T04:36:50;7.87;97.14
70336;SHT31;57756;47.408;18.940;2024-02-04T04:39:16;7.88;97.22
70336;SHT31;57756;47.408;18.940;2024-02-04T04:41:43;7.88;97.27
70336;SHT31;57756;47.408;18.940;2024-02-04T04:44:09;7.92;97.11
70336;SHT31;57756;47.408;18.940;2024-02-04T04:46:37;7.87;97.14
70336;SHT31;57756;47.408;18.940;2024-02-04T04:49:03;7.88;97.18
70336;SHT31;57756;47.408;18.940;2024-02-04T04:51:28;7.84;97.27
70336;SHT31;57756;47.408;18.940;2024-02-04T04:53:54;7.87;97.23
70336;SHT31;57756;47.408;18.940;2024-02-04T04:56:19;7.85;97.26
70336;SHT31;57756;47.408;18.940;2024-02-04T04:58:44;7.80;97.37
70336;SHT31;57756;47.408;18.940;2024-02-04T05:01:10;7.80;97.62
70336;SHT31;57756;47.408;18.940;2024-02-04T05:03:35;7.78;97.68
70336;SHT31;57756;47.408;18.940;2024-02-04T05:06:00;7.74;97.75
70336;SHT31;57756;47.408;18.940;2024-02-04T05:08:26;7.74;97.82
70336;SHT31;57756;47.408;18.940;2024-02-04T05:10:51;7.73;97.85
70336;SHT31;57756;47.408;18.940;2024-02-04T05:13:17;7.70;98.06
70336;SHT31;57756;47.408;18.940;2024-02-04T05:15:42;7.73;98.01
70336;SHT31;57756;47.408;18.940;2024-02-04T05:18:08;7.67;98.20
70336;SHT31;57756;47.408;18.940;2024-02-04T05:20:33;7.60;98.54
70336;SHT31;57756;47.408;18.940;2024-02-04T05:23:02;7.54;98.83
70336;SHT31;57756;47.408;18.940;2024-02-04T05:25:27;7.57;98.98
70336;SHT31;57756;47.408;18.940;2024-02-04T05:27:52;7.57;99.13
70336;SHT31;57756;47.408;18.940;2024-02-04T05:30:18;7.50;99.25
70336;SHT31;57756;47.408;18.940;2024-02-04T05:32:43;7.43;99.36
70336;SHT31;57756;47.408;18.940;2024-02-04T05:35:10;7.37;99.67
70336;SHT31;57756;47.408;18.940;2024-02-04T05:37:35;7.36;99.91
70336;SHT31;57756;47.408;18.940;2024-02-04T05:40:02;7.35;99.76
70336;SHT31;57756;47.408;18.940;2024-02-04T05:42:27;7.36;99.81
70336;SHT31;57756;47.408;18.940;2024-02-04T05:44:53;7.33;99.91
70336;SHT31;57756;47.408;18.940;2024-02-04T05:47:18;7.27;99.99
70336;SHT31;57756;47.408;18.940;2024-02-04T05:49:43;7.22;99.99
70336;SHT31;57756;47.408;18.940;2024-02-04T05:52:09;7.20;99.99
70336;SHT31;57756;47.408;18.940;2024-02-04T05:54:38;7.16;99.99
70336;SHT31;57756;47.408;18.940;2024-02-04T05:57:06;7.12;99.99
70336;SHT31;57756;47.408;18.940;2024-02-04T05:59:35;7.15;99.99
70336;SHT31;57756;47.408;18.940;2024-02-04T06:02:00;7.20;99.99
70336;SHT31;57756;47.408;18.940;2024-02-04T06:04:26;7.20;99.99
70336;SHT31;57756;47.408;18.940;2024-02-04T06:06:51;7.18;99.99
70336;SHT31;57756;47.408;18.940;2024-02-04T06:09:17;7.20;99.99
70336;SHT31;57756;47.408;18.940;2024-02-04T06:11:45;7.15;99.99
70336;SHT31;57756;47.408;18.940;2024-02-04T06:14:11;7.16;99.99
70336;SHT31;57756;47.408;18.940;2024-02-04T06:16:37;7.20;99.99
70336;SHT31;57756;47.408;18.940;2024-02-04T06:19:02;7.16;99.99
70336;SHT31;57756;47.408;18.940;2024-02-04T06:21:28;7.19;99.99
70336;SHT31;57756;47.408;18.940;2024-02-04T06:23:53;7.19;99.99
70336;SHT31;57756;47.408;18.940;2024-02-04T06:26:18;7.15;99.99
70336;SHT31;57756;47.408;18.940;2024-02-04T06:28:44;7.12;99.99
70336;SHT31;57756;47.408;18.940;2024-02-04T06:31:11;7.23;99.99
70336;SHT31;57756;47.408;18.940;2024-02-04T06:33:37;7.25;99.99
70336;SHT31;57756;47.408;18.940;2024-02-04T06:36:02;7.32;99.99
70336;SHT31;57756;47.408;18.940;2024-02-04T06:38:28;7.46;99.63
70336;SHT31;57756;47.408;18.940;2024-02-04T06:40:53;7.49;99.31
70336;SHT31;57756;47.408;18.940;2024-02-04T06:43:19;7.54;99.27
70336;SHT31;57756;47.408;18.940;2024-02-04T06:45:44;7.54;99.21
70336;SHT31;57756;47.408;18.940;2024-02-04T06:48:09;7.59;98.99
70336;SHT31;57756;47.408;18.940;2024-02-04T06:50:35;7.54;99.04
70336;SHT31;57756;47.408;18.940;2024-02-04T06:53:01;7.70;98.71
70336;SHT31;57756;47.408;18.940;2024-02-04T06:55:26;7.84;98.40
70336;SHT31;57756;47.408;18.940;2024-02-04T06:57:51;8.02;97.82
70336;SHT31;57756;47.408;18.940;2024-02-04T07:00:17;8.08;97.67
70336;SHT31;57756;47.408;18.940;2024-02-04T07:02:42;8.16;97.35
70336;SHT31;57756;47.408;18.940;2024-02-04T07:05:08;8.26;97.04
70336;SHT31;57756;47.408;18.940;2024-02-04T07:07:35;8.46;96.52
70336;SHT31;57756;47.408;18.940;2024-02-04T07:10:00;8.42;96.28
70336;SHT31;57756;47.408;18.940;2024-02-04T07:12:26;8.45;96.26
70336;SHT31;57756;47.408;18.940;2024-02-04T07:14:51;8.66;95.76
70336;SHT31;57756;47.408;18.940;2024-02-04T07:17:16;8.57;95.57
70336;SHT31;57756;47.408;18.940;2024-02-04T07:19:42;8.52;95.64
70336;SHT31;57756;47.408;18.940;2024-02-04T07:22:07;8.50;95.83
70336;SHT31;57756;47.408;18.940;2024-02-04T07:24:33;8.74;95.37
70336;SHT31;57756;47.408;18.940;2024-02-04T07:27:00;8.96;94.79
70336;SHT31;57756;47.408;18.940;2024-02-04T07:29:25;9.28;93.93
70336;SHT31;57756;47.408;18.940;2024-02-04T07:31:51;9.32;93.44
70336;SHT31;57756;47.408;18.940;2024-02-04T07:34:16;9.36;93.40
70336;SHT31;57756;47.408;18.940;2024-02-04T07:36:42;9.28;93.66
70336;SHT31;57756;47.408;18.940;2024-02-04T07:39:08;9.17;93.74
70336;SHT31;57756;47.408;18.940;2024-02-04T07:41:34;9.05;94.00
70336;SHT31;57756;47.408;18.940;2024-02-04T07:43:59;9.03;94.10
70336;SHT31;57756;47.408;18.940;2024-02-04T07:46:25;8.94;94.36
70336;SHT31;57756;47.408;18.940;2024-02-04T07:48:50;8.90;94.70
70336;SHT31;57756;47.408;18.940;2024-02-04T07:51:15;8.87;94.61
70336;SHT31;57756;47.408;18.940;2024-02-04T07:53:41;8.88;94.63
70336;SHT31;57756;47.408;18.940;2024-02-04T07:56:07;8.91;94.62
70336;SHT31;57756;47.408;18.940;2024-02-04T07:58:33;8.97;94.52
70336;SHT31;57756;47.408;18.940;2024-02-04T08:00:59;8.94;94.71
70336;SHT31;57756;47.408;18.940;2024-02-04T08:03:25;8.98;94.60
70336;SHT31;57756;47.408;18.940;2024-02-04T08:05:50;9.01;94.58
70336;SHT31;57756;47.408;18.940;2024-02-04T08:08:16;9.07;94.34
70336;SHT31;57756;47.408;18.940;2024-02-04T08:10:42;9.12;94.23
70336;SHT31;57756;47.408;18.940;2024-02-04T08:13:07;9.08;94.11
70336;SHT31;57756;47.408;18.940;2024-02-04T08:15:33;9.01;94.31
70336;SHT31;57756;47.408;18.940;2024-02-04T08:17:58;9.01;94.27
70336;SHT31;57756;47.408;18.940;2024-02-04T08:20:24;9.05;94.24
70336;SHT31;57756;47.408;18.940;2024-02-04T08:22:49;9.18;93.99
70336;SHT31;57756;47.408;18.940;2024-02-04T08:25:14;9.34;93.77
70336;SHT31;57756;47.408;18.940;2024-02-04T08:27:40;9.34;93.47
70336;SHT31;57756;47.408;18.940;2024-02-04T08:30:06;9.26;93.59
70336;SHT31;57756;47.408;18.940;2024-02-04T08:32:31;9.32;93.48
70336;SHT31;57756;47.408;18.940;2024-02-04T08:34:56;9.34;93.32
70336;SHT31;57756;47.408;18.940;2024-02-04T08:37:22;9.25;93.84
70336;SHT31;57756;47.408;18.940;2024-02-04T08:39:47;9.28;93.95
70336;SHT31;57756;47.408;18.940;2024-02-04T08:42:13;9.32;93.52
70336;SHT31;57756;47.408;18.940;2024-02-04T08:44:39;9.45;93.47
70336;SHT31;57756;47.408;18.940;2024-02-04T08:47:04;9.45;93.17
70336;SHT31;57756;47.408;18.940;2024-02-04T08:49:30;9.53;93.18
70336;SHT31;57756;47.408;18.940;2024-02-04T08:51:55;9.64;92.77
70336;SHT31;57756;47.408;18.940;2024-02-04T08:54:21;9.67;92.38
70336;SHT31;57756;47.408;18.940;2024-02-04T08:56:46;9.69;92.33
70336;SHT31;57756;47.408;18.940;2024-02-04T08:59:12;9.69;92.17
70336;SHT31;57756;47.408;18.940;2024-02-04T09:01:37;9.70;92.36
70336;SHT31;57756;47.408;18.940;2024-02-04T09:04:03;9.76;92.37
70336;SHT31;57756;47.408;18.940;2024-02-04T09:06:28;9.91;91.38
70336;SHT31;57756;47.408;18.940;2024-02-04T09:08:54;9.91;91.49
70336;SHT31;57756;47.408;18.940;2024-02-04T09:11:19;9.91;91.86
70336;SHT31;57756;47.408;18.940;2024-02-04T09:13:46;9.93;90.35
70336;SHT31;57756;47.408;18.940;2024-02-04T09:16:11;9.94;90.82
70336;SHT31;57756;47.408;18.940;2024-02-04T09:18:37;10.01;90.76
70336;SHT31;57756;47.408;18.940;2024-02-04T09:21:02;9.95;90.93
70336;SHT31;57756;47.408;18.940;2024-02-04T09:23:28;10.00;90.60
70336;SHT31;57756;47.408;18.940;2024-02-04T09:25:53;10.01;90.43
70336;SHT31;57756;47.408;18.940;2024-02-04T09:28:19;10.11;90.28
70336;SHT31;57756;47.408;18.940;2024-02-04T09:30:45;10.14;90.49
70336;SHT31;57756;47.408;18.940;2024-02-04T09:33:11;10.18;90.30
70336;SHT31;57756;47.408;18.940;2024-02-04T09:35:37;10.22;90.08
70336;SHT31;57756;47.408;18.940;2024-02-04T09:38:02;10.37;90.00
70336;SHT31;57756;47.408;18.940;2024-02-04T09:40:28;10.49;89.14
70336;SHT31;57756;47.408;18.940;2024-02-04T09:42:55;10.50;89.08
70336;SHT31;57756;47.408;18.940;2024-02-04T09:45:21;10.50;89.22
70336;SHT31;57756;47.408;18.940;2024-02-04T09:47:47;10.55;88.92
70336;SHT31;57756;47.408;18.940;2024-02-04T09:50:15;10.62;89.10
70336;SHT31;57756;47.408;18.940;2024-02-04T09:52:42;10.66;88.63
70336;SHT31;57756;47.408;18.940;2024-02-04T09:55:10;10.75;88.78
70336;SHT31;57756;47.408;18.940;2024-02-04T09:57:37;10.83;87.97
70336;SHT31;57756;47.408;18.940;2024-02-04T10:00:03;10.90;87.20
70336;SHT31;57756;47.408;18.940;2024-02-04T10:02:31;11.06;86.98
70336;SHT31;57756;47.408;18.940;2024-02-04T10:04:57;11.25;87.07
70336;SHT31;57756;47.408;18.940;2024-02-04T10:07:23;11.25;86.49
70336;SHT31;57756;47.408;18.940;2024-02-04T10:09:49;11.20;85.70
70336;SHT31;57756;47.408;18.940;2024-02-04T10:12:15;11.30;85.71
70336;SHT31;57756;47.408;18.940;2024-02-04T10:14:40;11.31;85.94
70336;SHT31;57756;47.408;18.940;2024-02-04T10:17:06;11.32;85.79
70336;SHT31;57756;47.408;18.940;2024-02-04T10:19:32;11.41;85.25
70336;SHT31;57756;47.408;18.940;2024-02-04T10:22:01;11.50;85.15
70336;SHT31;57756;47.408;18.940;2024-02-04T10:24:27;11.65;84.95
70336;SHT31;57756;47.408;18.940;2024-02-04T10:26:54;12.26;83.92
70336;SHT31;57756;47.408;18.940;2024-02-04T10:29:20;12.13;82.78
70336;SHT31;57756;47.408;18.940;2024-02-04T10:31:45;12.09;82.62
70336;SHT31;57756;47.408;18.940;2024-02-04T10:34:11;12.31;81.85
70336;SHT31;57756;47.408;18.940;2024-02-04T10:36:36;12.37;81.87
70336;SHT31;57756;47.408;18.940;2024-02-04T10:39:03;12.34;82.28
70336;SHT31;57756;47.408;18.940;2024-02-04T10:41:29;12.42;81.96
70336;SHT31;57756;47.408;18.940;2024-02-04T10:43:58;12.31;81.95
70336;SHT31;57756;47.408;18.940;2024-02-04T10:46:29;12.23;82.47
70336;SHT31;57756;47.408;18.940;2024-02-04T10:48:56;12.17;81.90
70336;SHT31;57756;47.408;18.940;2024-02-04T10:51:26;12.17;82.01
70336;SHT31;57756;47.408;18.940;2024-02-04T10:53:54;12.16;82.54
70336;SHT31;57756;47.408;18.940;2024-02-04T10:56:30;12.13;81.25
70336;SHT31;57756;47.408;18.940;2024-02-04T10:58:56;12.30;81.95
70336;SHT31;57756;47.408;18.940;2024-02-04T11:01:23;12.49;81.49
70336;SHT31;57756;47.408;18.940;2024-02-04T11:03:51;12.62;81.19
70336;SHT31;57756;47.408;18.940;2024-02-04T11:06:18;12.67;81.66
70336;SHT31;57756;47.408;18.940;2024-02-04T11:08:46;12.85;80.53
70336;SHT31;57756;47.408;18.940;2024-02-04T11:11:11;12.99;81.55
70336;SHT31;57756;47.408;18.940;2024-02-04T11:13:38;12.93;80.75
70336;SHT31;57756;47.408;18.940;2024-02-04T11:16:11;12.84;80.91
70336;SHT31;57756;47.408;18.940;2024-02-04T11:27:24;13.03;79.84
70336;SHT31;57756;47.408;18.940;2024-02-04T11:29:50;13.02;80.22
70336;SHT31;57756;47.408;18.940;2024-02-04T11:32:17;13.06;79.71
70336;SHT31;57756;47.408;18.940;2024-02-04T11:34:44;13.07;79.43
70336;SHT31;57756;47.408;18.940;2024-02-04T11:37:17;13.20;78.66
70336;SHT31;57756;47.408;18.940;2024-02-04T11:39:51;13.19;78.09
70336;SHT31;57756;47.408;18.940;2024-02-04T11:42:17;13.30;78.44
70336;SHT31;57756;47.408;18.940;2024-02-04T11:44:44;13.34;77.67
70336;SHT31;57756;47.408;18.940;2024-02-04T11:47:09;13.30;78.13
70336;SHT31;57756;47.408;18.940;2024-02-04T11:49:34;13.40;77.26
70336;SHT31;57756;47.408;18.940;2024-02-04T11:52:00;13.47;77.80
70336;SHT31;57756;47.408;18.940;2024-02-04T11:54:26;13.47;77.35
70336;SHT31;57756;47.408;18.940;2024-02-04T11:56:52;13.44;76.50
70336;SHT31;57756;47.408;18.940;2024-02-04T11:59:26;13.43;77.24
70336;SHT31;57756;47.408;18.940;2024-02-04T12:01:55;13.46;76.92
70336;SHT31;57756;47.408;18.940;2024-02-04T12:04:21;13.55;77.19
70336;SHT31;57756;47.408;18.940;2024-02-04T12:06:47;13.55;76.80
70336;SHT31;57756;47.408;18.940;2024-02-04T12:09:16;13.58;76.94
70336;SHT31;57756;47.408;18.940;2024-02-04T12:11:43;13.70;76.51
70336;SHT31;57756;47.408;18.940;2024-02-04T12:14:09;13.70;76.56
70336;SHT31;57756;47.408;18.940;2024-02-04T12:16:35;13.62;76.23
70336;SHT31;57756;47.408;18.940;2024-02-04T12:19:02;13.60;76.30
70336;SHT31;57756;47.408;18.940;2024-02-04T12:21:31;13.53;76.42
70336;SHT31;57756;47.408;18.940;2024-02-04T12:23:58;13.54;76.96
70336;SHT31;57756;47.408;18.940;2024-02-04T12:26:23;13.60;76.85
70336;SHT31;57756;47.408;18.940;2024-02-04T12:28:50;13.55;77.01
70336;SHT31;57756;47.408;18.940;2024-02-04T12:31:19;13.55;77.19
70336;SHT31;57756;47.408;18.940;2024-02-04T12:33:56;13.54;76.80
70336;SHT31;57756;47.408;18.940;2024-02-04T12:36:29;13.54;77.31
70336;SHT31;57756;47.408;18.940;2024-02-04T12:38:57;13.51;77.38
70336;SHT31;57756;47.408;18.940;2024-02-04T12:41:23;13.53;77.54
70336;SHT31;57756;47.408;18.940;2024-02-04T12:43:50;13.60;78.58
70336;SHT31;57756;47.408;18.940;2024-02-04T12:46:16;13.61;77.55
70336;SHT31;57756;47.408;18.940;2024-02-04T12:48:41;13.50;77.55
70336;SHT31;57756;47.408;18.940;2024-02-04T12:51:07;13.47;77.60
70336;SHT31;57756;47.408;18.940;2024-02-04T12:53:32;13.51;78.09
70336;SHT31;57756;47.408;18.940;2024-02-04T12:55:58;13.44;77.63
70336;SHT31;57756;47.408;18.940;2024-02-04T12:58:27;13.44;78.24
70336;SHT31;57756;47.408;18.940;2024-02-04T13:01:02;13.47;78.37
70336;SHT31;57756;47.408;18.940;2024-02-04T13:03:29;13.46;78.20
70336;SHT31;57756;47.408;18.940;2024-02-04T13:05:58;13.44;78.44
70336;SHT31;57756;47.408;18.940;2024-02-04T13:08:24;13.36;78.46
70336;SHT31;57756;47.408;18.940;2024-02-04T13:10:56;13.30;79.04
70336;SHT31;57756;47.408;18.940;2024-02-04T13:13:22;13.26;78.96
70336;SHT31;57756;47.408;18.940;2024-02-04T13:15:52;13.23;79.44
70336;SHT31;57756;47.408;18.940;2024-02-04T13:18:18;13.27;79.38
70336;SHT31;57756;47.408;18.940;2024-02-04T13:20:43;13.30;79.49
70336;SHT31;57756;47.408;18.940;2024-02-04T13:23:10;13.27;79.75
70336;SHT31;57756;47.408;18.940;2024-02-04T13:25:36;13.33;80.44
70336;SHT31;57756;47.408;18.940;2024-02-04T13:28:01;13.33;80.15
70336;SHT31;57756;47.408;18.940;2024-02-04T13:30:27;13.28;79.43
70336;SHT31;57756;47.408;18.940;2024-02-04T13:32:53;13.28;79.32
70336;SHT31;57756;47.408;18.940;2024-02-04T13:35:18;13.24;79.35
70336;SHT31;57756;47.408;18.940;2024-02-04T13:37:45;13.36;79.27
70336;SHT31;57756;47.408;18.940;2024-02-04T13:40:14;13.33;78.51
70336;SHT31;57756;47.408;18.940;2024-02-04T13:42:39;13.32;79.04
70336;SHT31;57756;47.408;18.940;2024-02-04T13:45:05;13.24;79.36
70336;SHT31;57756;47.408;18.940;2024-02-04T13:47:31;13.22;79.20
70336;SHT31;57756;47.408;18.940;2024-02-04T13:49:56;13.20;79.84
70336;SHT31;57756;47.408;18.940;2024-02-04T13:52:22;13.19;79.23
70336;SHT31;57756;47.408;18.940;2024-02-04T13:54:47;13.17;79.68
70336;SHT31;57756;47.408;18.940;2024-02-04T13:57:13;13.17;79.12
70336;SHT31;57756;47.408;18.940;2024-02-04T13:59:38;13.10;79.75
70336;SHT31;57756;47.408;18.940;2024-02-04T14:02:04;13.16;79.99
70336;SHT31;57756;47.408;18.940;2024-02-04T14:04:30;13.10;80.03
70336;SHT31;57756;47.408;18.940;2024-02-04T14:06:57;13.09;79.79
70336;SHT31;57756;47.408;18.940;2024-02-04T14:09:22;13.10;80.20
70336;SHT31;57756;47.408;18.940;2024-02-04T14:11:48;13.19;80.26
70336;SHT31;57756;47.408;18.940;2024-02-04T14:14:13;13.20;79.94
70336;SHT31;57756;47.408;18.940;2024-02-04T14:16:39;13.27;80.14
70336;SHT31;57756;47.408;18.940;2024-02-04T14:19:04;13.26;80.08
70336;SHT31;57756;47.408;18.940;2024-02-04T14:21:30;13.26;79.87
70336;SHT31;57756;47.408;18.940;2024-02-04T14:23:55;13.22;79.90
70336;SHT31;57756;47.408;18.940;2024-02-04T14:26:21;13.26;80.04
70336;SHT31;57756;47.408;18.940;2024-02-04T14:28:48;13.16;80.52
70336;SHT31;57756;47.408;18.940;2024-02-04T14:31:13;13.14;80.41
70336;SHT31;57756;47.408;18.940;2024-02-04T14:33:39;13.00;80.15
70336;SHT31;57756;47.408;18.940;2024-02-04T14:36:06;12.99;81.38
70336;SHT31;57756;47.408;18.940;2024-02-04T14:38:31;12.92;81.06
70336;SHT31;57756;47.408;18.940;2024-02-04T14:41:00;12.88;80.86
70336;SHT31;57756;47.408;18.940;2024-02-04T14:43:25;12.82;80.96
70336;SHT31;57756;47.408;18.940;2024-02-04T14:45:51;12.81;81.07
70336;SHT31;57756;47.408;18.940;2024-02-04T14:48:16;12.69;80.55
70336;SHT31;57756;47.408;18.940;2024-02-04T14:50:42;12.58;80.65
70336;SHT31;57756;47.408;18.940;2024-02-04T14:53:08;12.58;81.31
70336;SHT31;57756;47.408;18.940;2024-02-04T14:55:34;12.55;80.61
70336;SHT31;57756;47.408;18.940;2024-02-04T14:57:59;12.57;80.26
70336;SHT31;57756;47.408;18.940;2024-02-04T15:00:25;12.51;80.74
70336;SHT31;57756;47.408;18.940;2024-02-04T15:02:53;12.42;81.48
70336;SHT31;57756;47.408;18.940;2024-02-04T15:05:18;12.36;81.08
70336;SHT31;57756;47.408;18.940;2024-02-04T15:07:47;12.29;81.34
70336;SHT31;57756;47.408;18.940;2024-02-04T15:10:13;12.30;81.60
70336;SHT31;57756;47.408;18.940;2024-02-04T15:12:38;12.26;82.33
70336;SHT31;57756;47.408;18.940;2024-02-04T15:15:04;12.21;81.51
70336;SHT31;57756;47.408;18.940;2024-02-04T15:17:32;12.14;81.95
70336;SHT31;57756;47.408;18.940;2024-02-04T15:19:58;12.06;82.21
70336;SHT31;57756;47.408;18.940;2024-02-04T15:22:23;12.09;82.92
70336;SHT31;57756;47.408;18.940;2024-02-04T15:24:49;11.99;82.29
70336;SHT31;57756;47.408;18.940;2024-02-04T15:27:14;11.94;81.83
70336;SHT31;57756;47.408;18.940;2024-02-04T15:29:41;11.86;82.68
70336;SHT31;57756;47.408;18.940;2024-02-04T15:32:08;11.81;82.20